createdAt,value
2017-07-09T00:01:10.574Z,75.60
2017-07-09T00:03:37.357Z,76.20
2017-07-09T00:06:03.384Z,76.20
2017-07-09T00:08:29.422Z,75.80
2017-07-09T00:10:56.222Z,75.90
2017-07-09T00:13:22.273Z,75.90
2017-07-09T00:15:48.310Z,75.60
2017-07-09T00:18:14.357Z,76.00
2017-07-09T00:20:40.425Z,75.50
2017-07-09T00:23:06.452Z,75.60
2017-07-09T00:25:32.485Z,75.90
2017-07-09T00:27:58.533Z,76.10
2017-07-09T00:30:24.574Z,76.10
2017-07-09T00:32:50.601Z,76.10
2017-07-09T00:35:16.641Z,76.00
2017-07-09T00:37:42.658Z,75.30
2017-07-09T00:40:08.689Z,75.70
2017-07-09T00:42:34.729Z,76.20
2017-07-09T00:45:00.777Z,76.40
2017-07-09T00:47:27.558Z,76.20
2017-07-09T00:49:53.586Z,76.20
2017-07-09T00:52:19.654Z,76.30
2017-07-09T00:54:45.677Z,76.50
2017-07-09T00:57:11.725Z,76.30
2017-07-09T00:59:37.754Z,76.60
2017-07-09T01:02:04.534Z,76.80
2017-07-09T01:04:30.570Z,76.80
2017-07-09T01:06:56.610Z,76.80
2017-07-09T01:09:22.661Z,76.80
2017-07-09T01:11:48.722Z,76.60
2017-07-09T01:14:14.781Z,77.00
2017-07-09T01:16:40.805Z,76.30
2017-07-09T01:19:06.842Z,77.00
2017-07-09T01:21:32.909Z,76.30
2017-07-09T01:23:58.949Z,76.70
2017-07-09T01:26:25.724Z,76.50
2017-07-09T01:28:51.778Z,76.50
2017-07-09T01:31:18.545Z,77.10
2017-07-09T01:33:44.573Z,76.40
2017-07-09T01:36:10.613Z,76.70
2017-07-09T01:38:37.467Z,76.70
2017-07-09T01:41:03.516Z,76.40
2017-07-09T01:43:29.554Z,76.40
2017-07-09T01:45:55.596Z,76.00
2017-07-09T01:48:21.645Z,76.30
2017-07-09T01:50:47.686Z,76.60
2017-07-09T01:53:14.470Z,75.90
2017-07-09T01:55:40.510Z,76.30
2017-07-09T01:58:06.574Z,76.70
2017-07-09T02:00:32.641Z,77.50
2017-07-09T02:02:58.692Z,77.00
2017-07-09T02:05:24.734Z,76.80
2017-07-09T02:07:50.777Z,76.80
2017-07-09T02:10:17.558Z,76.60
2017-07-09T02:12:43.606Z,76.50
2017-07-09T02:15:09.633Z,76.90
2017-07-09T02:17:35.671Z,76.80
2017-07-09T02:20:01.705Z,77.50
2017-07-09T02:22:27.748Z,77.10
2017-07-09T02:24:53.870Z,77.30
2017-07-09T02:27:20.681Z,77.50
2017-07-09T02:29:47.449Z,77.40
2017-07-09T02:32:13.504Z,77.20
2017-07-09T02:34:39.549Z,77.30
2017-07-09T02:37:05.592Z,77.80
2017-07-09T02:39:31.638Z,77.50
2017-07-09T02:41:57.673Z,77.70
2017-07-09T02:44:23.725Z,77.70
2017-07-09T02:46:49.757Z,77.90
2017-07-09T02:49:15.801Z,78.00
2017-07-09T02:51:41.829Z,78.00
2017-07-09T02:54:07.859Z,78.10
2017-07-09T02:56:33.925Z,78.10
2017-07-09T02:58:59.972Z,78.10
2017-07-09T03:01:26.009Z,78.10
2017-07-09T03:03:52.030Z,77.70
2017-07-09T03:06:18.841Z,77.80
2017-07-09T03:08:44.881Z,77.70
2017-07-09T03:11:11.660Z,78.10
2017-07-09T03:13:37.717Z,78.00
2017-07-09T03:16:03.777Z,77.80
2017-07-09T03:18:29.817Z,77.60
2017-07-09T03:20:56.670Z,76.90
2017-07-09T03:23:22.710Z,77.30
2017-07-09T03:25:48.777Z,77.70
2017-07-09T03:28:14.829Z,78.30
2017-07-09T03:30:40.866Z,77.40
2017-07-09T03:33:06.897Z,77.60
2017-07-09T03:35:33.670Z,77.70
2017-07-09T03:37:59.729Z,77.70
2017-07-09T03:40:26.502Z,77.60
2017-07-09T03:42:52.548Z,77.60
2017-07-09T03:45:19.325Z,78.90
2017-07-09T03:47:45.365Z,78.20
2017-07-09T03:50:11.397Z,77.80
2017-07-09T03:52:38.204Z,77.20
2017-07-09T03:55:04.269Z,77.20
2017-07-09T03:57:30.334Z,77.60
2017-07-09T03:59:56.385Z,77.60
2017-07-09T04:02:22.417Z,77.10
2017-07-09T04:04:48.457Z,76.90
2017-07-09T04:07:14.481Z,76.90
2017-07-09T04:09:41.253Z,77.00
2017-07-09T04:12:07.282Z,77.00
2017-07-09T04:14:48.276Z,76.90
2017-07-09T04:17:15.029Z,76.40
2017-07-09T04:19:41.065Z,76.40
2017-07-09T04:22:07.105Z,76.50
2017-07-09T04:24:33.173Z,76.80
2017-07-09T04:26:59.241Z,76.60
2017-07-09T04:29:26.005Z,76.80
2017-07-09T04:31:52.036Z,76.70
2017-07-09T04:34:18.054Z,76.80
2017-07-09T04:36:44.082Z,76.50
2017-07-09T04:39:10.093Z,76.40
2017-07-09T04:41:36.112Z,76.50
2017-07-09T04:44:02.885Z,76.20
2017-07-09T04:46:28.925Z,76.20
2017-07-09T04:48:54.969Z,75.60
2017-07-09T04:51:20.989Z,75.70
2017-07-09T04:53:47.006Z,75.40
2017-07-09T04:56:13.058Z,75.50
2017-07-09T04:58:39.098Z,75.60
2017-07-09T05:01:05.876Z,75.50
2017-07-09T05:03:31.911Z,75.40
2017-07-09T05:05:58.672Z,75.00
2017-07-09T05:08:24.698Z,75.00
2017-07-09T05:10:50.738Z,74.00
2017-07-09T05:13:16.765Z,73.50
2017-07-09T05:15:42.809Z,73.30
2017-07-09T05:18:08.853Z,73.20
2017-07-09T05:20:34.881Z,72.90
2017-07-09T05:23:00.924Z,72.50
2017-07-09T05:25:26.947Z,70.10
2017-07-09T05:27:52.982Z,71.30
2017-07-09T05:30:19.013Z,70.10
2017-07-09T05:32:45.050Z,70.50
2017-07-09T05:35:11.850Z,70.50
2017-07-09T05:37:37.894Z,70.50
2017-07-09T05:40:03.965Z,70.10
2017-07-09T05:42:30.134Z,67.80
2017-07-09T05:44:56.214Z,68.30
2017-07-09T05:47:22.985Z,67.70
2017-07-09T05:49:49.018Z,67.70
2017-07-09T05:52:15.082Z,68.00
2017-07-09T05:54:41.126Z,68.10
2017-07-09T05:57:07.162Z,66.90
2017-07-09T05:59:33.929Z,68.00
2017-07-09T06:01:59.998Z,67.60
2017-07-09T06:04:26.117Z,67.60
2017-07-09T06:06:52.161Z,67.60
2017-07-09T06:09:18.180Z,66.60
2017-07-09T06:11:44.208Z,67.00
2017-07-09T06:14:10.242Z,67.30
2017-07-09T06:16:36.258Z,65.10
2017-07-09T06:19:04.302Z,66.60
2017-07-09T06:21:31.081Z,64.80
2017-07-09T06:23:57.101Z,64.80
2017-07-09T06:26:23.113Z,65.80
2017-07-09T06:28:49.183Z,65.30
2017-07-09T06:31:15.268Z,64.00
2017-07-09T06:33:42.060Z,64.50
2017-07-09T06:36:08.104Z,63.90
2017-07-09T06:38:34.141Z,63.70
2017-07-09T06:41:00.162Z,63.60
2017-07-09T06:43:26.204Z,63.50
2017-07-09T06:45:52.233Z,63.90
2017-07-09T06:48:18.246Z,63.00
2017-07-09T06:50:45.026Z,63.40
2017-07-09T06:53:11.088Z,62.80
2017-07-09T06:55:37.848Z,62.30
2017-07-09T06:58:04.622Z,61.60
2017-07-09T07:00:30.696Z,61.60
2017-07-09T07:02:56.739Z,61.10
2017-07-09T07:05:22.778Z,61.50
2017-07-09T07:07:48.834Z,61.60
2017-07-09T07:10:15.617Z,61.50
2017-07-09T07:12:41.645Z,61.50
2017-07-09T07:15:08.589Z,61.60
2017-07-09T07:17:34.634Z,61.50
2017-07-09T07:20:00.657Z,60.70
2017-07-09T07:22:26.700Z,60.30
2017-07-09T07:24:52.747Z,58.70
2017-07-09T07:27:18.781Z,58.60
2017-07-09T07:29:44.817Z,57.60
2017-07-09T07:32:10.886Z,57.90
2017-07-09T07:34:36.909Z,58.20
2017-07-09T07:37:02.954Z,57.10
2017-07-09T07:39:28.982Z,57.20
2017-07-09T07:41:55.038Z,57.00
2017-07-09T07:44:21.077Z,56.60
2017-07-09T07:46:47.093Z,57.00
2017-07-09T07:49:13.884Z,56.30
2017-07-09T07:51:39.909Z,56.30
2017-07-09T07:54:05.962Z,56.50
2017-07-09T07:56:31.992Z,55.80
2017-07-09T07:58:58.031Z,56.00
2017-07-09T08:01:24.062Z,57.20
2017-07-09T08:03:50.854Z,58.10
2017-07-09T08:06:16.907Z,57.30
2017-07-09T08:08:43.678Z,55.00
2017-07-09T08:11:09.704Z,55.00
2017-07-09T08:13:35.797Z,54.70
2017-07-09T08:16:02.526Z,55.40
2017-07-09T08:18:28.546Z,55.30
2017-07-09T08:20:54.578Z,54.00
2017-07-09T08:23:21.344Z,54.30
2017-07-09T08:25:47.401Z,53.60
2017-07-09T08:28:13.419Z,53.20
2017-07-09T08:30:39.438Z,51.80
2017-07-09T08:33:06.202Z,53.30
2017-07-09T08:35:32.246Z,52.90
2017-07-09T08:37:58.282Z,52.60
2017-07-09T08:40:25.073Z,52.80
2017-07-09T08:42:51.096Z,52.80
2017-07-09T08:45:24.185Z,51.20
2017-07-09T08:47:51.049Z,52.80
2017-07-09T08:50:17.114Z,52.50
2017-07-09T08:52:43.151Z,52.70
2017-07-09T08:55:09.900Z,51.00
2017-07-09T08:57:35.938Z,51.10
2017-07-09T09:00:01.981Z,51.50
2017-07-09T09:02:28.808Z,48.70
2017-07-09T09:04:55.577Z,50.00
2017-07-09T09:07:21.619Z,49.90
2017-07-09T09:09:47.653Z,51.40
2017-07-09T09:12:13.727Z,47.90
2017-07-09T09:14:39.760Z,51.10
2017-07-09T09:17:06.661Z,47.60
2017-07-09T09:19:32.694Z,46.90
2017-07-09T09:21:59.467Z,50.90
2017-07-09T09:27:22.932Z,50.80
2017-07-09T09:29:48.978Z,48.00
2017-07-09T09:32:15.758Z,52.10
2017-07-09T09:34:41.798Z,51.90
2017-07-09T09:37:07.841Z,48.00
2017-07-09T09:39:34.622Z,45.50
2017-07-09T09:42:00.682Z,45.50
2017-07-09T09:44:26.725Z,50.40
2017-07-09T09:46:52.746Z,47.90
2017-07-09T09:49:18.778Z,45.80
2017-07-09T09:51:44.832Z,48.80
2017-07-09T09:54:11.247Z,47.20
2017-07-09T09:56:37.353Z,45.60
2017-07-09T09:59:03.405Z,47.70
2017-07-09T10:01:29.510Z,46.30
2017-07-09T10:03:55.554Z,47.70
2017-07-09T10:06:22.353Z,42.10
2017-07-09T10:08:48.394Z,42.00
2017-07-09T10:11:15.239Z,43.60
2017-07-09T10:13:41.269Z,43.00
2017-07-09T10:16:07.339Z,44.80
2017-07-09T10:18:34.113Z,41.90
2017-07-09T10:21:00.145Z,41.90
2017-07-09T10:23:26.165Z,39.20
2017-07-09T10:25:52.233Z,37.30
2017-07-09T10:28:18.298Z,36.90
2017-07-09T10:30:45.087Z,35.50
2017-07-09T10:33:11.147Z,35.40
2017-07-09T10:35:44.202Z,35.90
2017-07-09T10:38:10.247Z,36.00
2017-07-09T10:40:36.306Z,36.10
2017-07-09T10:43:02.357Z,30.40
2017-07-09T10:45:28.386Z,36.40
2017-07-09T10:47:54.462Z,30.00
2017-07-09T10:50:21.231Z,29.30
2017-07-09T10:52:47.277Z,29.20
2017-07-09T10:55:13.323Z,28.50
2017-07-09T10:57:39.373Z,28.60
2017-07-09T11:00:05.430Z,26.20
2017-07-09T11:02:31.465Z,26.10
2017-07-09T11:04:57.490Z,27.80
2017-07-09T11:07:23.529Z,26.00
2017-07-09T11:09:49.578Z,24.20
2017-07-09T11:12:15.826Z,24.80
2017-07-09T11:14:41.878Z,23.50
2017-07-09T11:17:07.925Z,23.70
2017-07-09T11:19:33.982Z,24.70
2017-07-09T11:22:00.765Z,23.50
2017-07-09T11:24:26.791Z,23.50
2017-07-09T11:26:52.837Z,23.00
2017-07-09T11:29:19.612Z,20.10
2017-07-09T11:31:45.649Z,20.10
2017-07-09T11:34:12.356Z,24.70
2017-07-09T11:36:38.638Z,23.80
2017-07-09T11:39:04.753Z,24.70
2017-07-09T11:41:30.806Z,24.60
2017-07-09T11:43:56.837Z,24.30
2017-07-09T11:46:22.874Z,26.30
2017-07-09T11:48:49.002Z,22.50
2017-07-09T11:51:15.079Z,23.40
2017-07-09T11:53:41.139Z,20.20
2017-07-09T11:56:07.198Z,21.20
2017-07-09T11:58:33.237Z,21.80
2017-07-09T12:00:59.284Z,23.00
2017-07-09T12:03:25.341Z,21.70
2017-07-09T12:05:51.367Z,21.60
2017-07-09T12:08:17.455Z,24.50
2017-07-09T12:10:43.479Z,23.30
2017-07-09T12:13:09.519Z,24.30
2017-07-09T12:15:35.539Z,23.40
2017-07-09T12:18:02.312Z,23.50
2017-07-09T12:20:28.329Z,22.80
2017-07-09T12:22:54.361Z,22.10
2017-07-09T12:25:20.373Z,22.40
2017-07-09T12:27:46.397Z,22.50
2017-07-09T12:30:12.426Z,23.00
2017-07-09T12:32:39.177Z,22.80
2017-07-09T12:35:05.235Z,22.80
2017-07-09T12:37:31.258Z,22.40
2017-07-09T12:39:58.029Z,21.30
2017-07-09T12:42:24.051Z,21.90
2017-07-09T12:44:50.077Z,23.20
2017-07-09T12:47:16.132Z,21.60
2017-07-09T12:49:42.153Z,22.80
2017-07-09T12:52:08.318Z,23.10
2017-07-09T12:54:34.357Z,23.90
2017-07-09T12:57:01.153Z,25.30
2017-07-09T12:59:27.942Z,28.40
2017-07-09T13:01:53.969Z,28.40
2017-07-09T13:04:19.997Z,28.60
2017-07-09T13:06:46.083Z,26.40
2017-07-09T13:09:12.134Z,27.00
2017-07-09T13:11:38.942Z,27.60
2017-07-09T13:14:04.961Z,27.60
2017-07-09T13:16:31.735Z,27.70
2017-07-09T13:18:57.762Z,27.50
2017-07-09T13:21:23.827Z,28.30
2017-07-09T13:23:49.856Z,26.40
2017-07-09T13:26:15.876Z,28.50
2017-07-09T13:28:41.905Z,28.30
2017-07-09T13:31:07.959Z,26.00
2017-07-09T13:33:34.070Z,26.30
2017-07-09T13:36:00.825Z,27.60
2017-07-09T13:38:26.860Z,27.70
2017-07-09T13:40:52.890Z,25.90
2017-07-09T13:43:19.698Z,25.80
2017-07-09T13:45:45.750Z,25.90
2017-07-09T13:48:11.782Z,24.50
2017-07-09T13:50:37.834Z,24.30
2017-07-09T13:53:04.026Z,24.80
2017-07-09T13:55:30.054Z,23.20
2017-07-09T13:57:56.089Z,22.90
2017-07-09T14:00:22.163Z,25.10
2017-07-09T14:02:48.209Z,21.80
2017-07-09T14:05:14.253Z,23.00
2017-07-09T14:07:40.298Z,22.50
2017-07-09T14:10:06.358Z,22.20
2017-07-09T14:12:32.419Z,22.20
2017-07-09T14:14:58.458Z,23.50
2017-07-09T14:17:24.477Z,22.00
2017-07-09T14:19:50.523Z,20.70
2017-07-09T14:22:16.562Z,20.20
2017-07-09T14:24:42.581Z,18.40
2017-07-09T14:27:08.618Z,20.60
2017-07-09T14:29:34.662Z,20.10
2017-07-09T14:32:00.698Z,19.70
2017-07-09T14:34:27.496Z,19.90
2017-07-09T14:36:53.562Z,19.40
2017-07-09T14:39:19.591Z,20.30
2017-07-09T14:41:45.630Z,21.00
2017-07-09T14:44:11.677Z,21.00
2017-07-09T14:46:38.494Z,21.20
2017-07-09T14:49:05.358Z,21.00
2017-07-09T14:51:31.408Z,21.00
2017-07-09T14:53:57.454Z,20.40
2017-07-09T14:56:23.510Z,19.30
2017-07-09T14:58:49.554Z,19.60
2017-07-09T15:01:16.336Z,22.60
2017-07-09T15:03:42.533Z,22.50
2017-07-09T15:06:08.575Z,23.30
2017-07-09T15:08:34.609Z,20.30
2017-07-09T15:11:01.393Z,19.90
2017-07-09T15:13:27.445Z,19.90
2017-07-09T15:15:54.290Z,19.80
2017-07-09T15:18:20.322Z,19.80
2017-07-09T15:20:46.385Z,21.40
2017-07-09T15:23:13.297Z,18.80
2017-07-09T15:25:39.559Z,18.80
2017-07-09T15:28:05.678Z,20.30
2017-07-09T15:30:31.740Z,21.10
2017-07-09T15:32:57.798Z,18.20
2017-07-09T15:35:23.841Z,19.40
2017-07-09T15:37:49.887Z,20.10
2017-07-09T15:40:15.925Z,17.50
2017-07-09T15:42:41.961Z,18.90
2017-07-09T15:45:08.019Z,17.90
2017-07-09T15:47:34.049Z,20.10
2017-07-09T15:50:00.079Z,20.40
2017-07-09T15:52:26.124Z,18.80
2017-07-09T15:54:52.150Z,18.00
2017-07-09T15:57:18.231Z,17.90
2017-07-09T15:59:44.269Z,18.60
2017-07-09T16:02:10.347Z,18.60
2017-07-09T16:04:36.413Z,20.60
2017-07-09T16:07:02.501Z,18.70
2017-07-09T16:09:28.534Z,20.70
2017-07-09T16:11:54.589Z,20.70
2017-07-09T16:14:21.378Z,20.20
2017-07-09T16:16:47.426Z,20.20
2017-07-09T16:19:13.476Z,19.40
2017-07-09T16:21:39.510Z,20.50
2017-07-09T16:24:05.538Z,18.70
2017-07-09T16:26:31.554Z,19.10
2017-07-09T16:28:57.598Z,19.10
2017-07-09T16:31:23.645Z,19.40
2017-07-09T16:33:49.722Z,18.90
2017-07-09T16:36:15.778Z,19.00
2017-07-09T16:38:41.809Z,19.30
2017-07-09T16:41:07.863Z,17.70
2017-07-09T16:43:33.885Z,17.30
2017-07-09T16:45:59.916Z,19.10
2017-07-09T16:48:25.954Z,19.20
2017-07-09T16:50:52.770Z,21.60
2017-07-09T16:53:19.562Z,22.50
2017-07-09T16:55:45.590Z,22.50
2017-07-09T16:58:13.131Z,23.90
2017-07-09T17:00:39.204Z,23.90
2017-07-09T17:03:12.183Z,25.60
2017-07-09T17:05:38.254Z,27.10
2017-07-09T17:08:05.057Z,29.50
2017-07-09T17:10:31.105Z,29.40
2017-07-09T17:12:57.167Z,29.40
2017-07-09T17:15:23.230Z,28.20
2017-07-09T17:17:49.277Z,30.10
2017-07-09T17:20:15.586Z,31.40
2017-07-09T17:22:41.668Z,30.30
2017-07-09T17:25:07.745Z,31.80
2017-07-09T17:27:34.529Z,35.00
2017-07-09T17:30:00.581Z,34.80
2017-07-09T17:32:26.630Z,33.80
2017-07-09T17:34:52.666Z,34.30
2017-07-09T17:37:18.831Z,34.40
2017-07-09T17:39:44.978Z,34.30
2017-07-09T17:42:11.010Z,36.80
2017-07-09T17:44:37.045Z,37.70
2017-07-09T17:47:03.100Z,39.00
2017-07-09T17:49:29.142Z,35.50
2017-07-09T17:51:55.182Z,36.80
2017-07-09T17:54:21.230Z,37.40
2017-07-09T17:56:47.296Z,37.90
2017-07-09T17:59:13.369Z,39.30
2017-07-09T18:01:39.400Z,39.40
2017-07-09T18:04:06.190Z,41.20
2017-07-09T18:06:32.225Z,41.20
2017-07-09T18:08:59.041Z,38.60
2017-07-09T18:11:25.082Z,38.50
2017-07-09T18:13:51.426Z,39.90
2017-07-09T18:16:17.464Z,40.80
2017-07-09T18:18:43.511Z,42.20
2017-07-09T18:21:09.543Z,40.90
2017-07-09T18:23:35.580Z,41.80
2017-07-09T18:26:01.600Z,43.90
2017-07-09T18:28:27.649Z,40.50
2017-07-09T18:30:53.695Z,43.10
2017-07-09T18:33:19.717Z,42.10
2017-07-09T18:35:45.770Z,43.40
2017-07-09T18:38:12.555Z,42.90
2017-07-09T18:40:38.589Z,42.90
2017-07-09T18:43:05.398Z,44.80
2017-07-09T18:45:31.455Z,44.00
2017-07-09T18:47:57.515Z,43.60
2017-07-09T18:50:23.597Z,44.70
2017-07-09T18:52:49.674Z,44.80
2017-07-09T18:55:15.714Z,46.30
2017-07-09T18:57:41.762Z,45.30
2017-07-09T19:00:07.804Z,47.30
2017-07-09T19:02:33.863Z,47.00
2017-07-09T19:04:59.902Z,47.10
2017-07-09T19:07:25.945Z,47.70
2017-07-09T19:09:52.017Z,45.90
2017-07-09T19:12:18.801Z,47.20
2017-07-09T19:14:44.858Z,47.20
2017-07-09T19:17:11.038Z,47.90
2017-07-09T19:19:37.114Z,47.90
2017-07-09T19:22:03.961Z,49.10
2017-07-09T19:24:30.018Z,49.10
2017-07-09T19:26:56.788Z,48.80
2017-07-09T19:29:22.827Z,48.80
2017-07-09T19:31:48.872Z,49.80
2017-07-09T19:34:14.920Z,49.50
2017-07-09T19:36:40.962Z,49.80
2017-07-09T19:39:07.029Z,50.10
2017-07-09T19:41:33.093Z,49.90
2017-07-09T19:43:59.885Z,50.00
2017-07-09T19:46:25.971Z,50.00
2017-07-09T19:48:52.005Z,50.80
2017-07-09T19:51:18.041Z,51.00
2017-07-09T19:53:44.070Z,51.10
2017-07-09T19:56:10.841Z,52.00
2017-07-09T19:58:36.877Z,51.90
2017-07-09T20:01:02.994Z,51.60
2017-07-09T20:03:29.049Z,51.70
2017-07-09T20:05:55.142Z,53.40
2017-07-09T20:08:21.185Z,52.80
2017-07-09T20:10:47.237Z,52.80
2017-07-09T20:13:14.017Z,53.20
2017-07-09T20:15:40.050Z,53.10
2017-07-09T20:18:06.142Z,53.90
2017-07-09T20:20:32.213Z,54.90
2017-07-09T20:22:58.269Z,55.10
2017-07-09T20:25:24.293Z,55.30
2017-07-09T20:27:50.329Z,55.00
2017-07-09T20:30:17.125Z,56.70
2017-07-09T20:32:43.182Z,56.70
2017-07-09T20:35:09.242Z,54.90
2017-07-09T20:37:35.283Z,54.40
2017-07-09T20:40:02.085Z,55.60
2017-07-09T20:42:28.903Z,55.80
2017-07-09T20:44:54.949Z,55.70
2017-07-09T20:47:20.989Z,55.90
2017-07-09T20:49:47.041Z,56.30
2017-07-09T20:52:13.072Z,56.80
2017-07-09T20:54:39.146Z,57.20
2017-07-09T20:57:05.173Z,57.50
2017-07-09T20:59:31.218Z,57.40
2017-07-09T21:01:57.353Z,57.40
2017-07-09T21:04:23.417Z,58.10
2017-07-09T21:06:49.467Z,57.80
2017-07-09T21:09:15.507Z,57.80
2017-07-09T21:11:41.562Z,58.10
2017-07-09T21:14:07.584Z,58.20
2017-07-09T21:16:33.609Z,58.20
2017-07-09T21:18:59.637Z,58.70
2017-07-09T21:21:25.738Z,59.00
2017-07-09T21:23:51.773Z,58.30
2017-07-09T21:26:17.801Z,58.50
2017-07-09T21:28:43.819Z,59.00
2017-07-09T21:31:09.857Z,58.30
2017-07-09T21:33:35.907Z,58.50
2017-07-09T21:36:02.706Z,58.60
2017-07-09T21:38:28.736Z,58.50
2017-07-09T21:40:54.778Z,58.50
2017-07-09T21:43:20.821Z,58.90
2017-07-09T21:45:46.872Z,59.00
2017-07-09T21:48:13.658Z,59.70
2017-07-09T21:50:39.706Z,59.00
2017-07-09T21:53:06.515Z,59.70
2017-07-09T21:55:33.345Z,59.60
2017-07-09T21:57:59.421Z,60.00
2017-07-09T22:00:25.450Z,60.00
2017-07-09T22:02:51.510Z,61.00
2017-07-09T22:05:17.538Z,60.40
2017-07-09T22:07:43.597Z,60.70
2017-07-09T22:10:09.617Z,60.90
2017-07-09T22:12:36.374Z,61.10
2017-07-09T22:15:02.420Z,61.00
2017-07-09T22:17:28.449Z,61.10
2017-07-09T22:19:54.495Z,61.60
2017-07-09T22:22:20.520Z,61.90
2017-07-09T22:24:46.554Z,62.40
2017-07-09T22:27:13.314Z,61.20
2017-07-09T22:29:39.337Z,61.20
2017-07-09T22:32:05.370Z,62.90
2017-07-09T22:34:32.010Z,62.30
2017-07-09T22:36:58.029Z,62.90
2017-07-09T22:39:24.098Z,62.80
2017-07-09T22:41:50.138Z,63.00
2017-07-09T22:44:16.153Z,63.40
2017-07-09T22:49:09.922Z,64.20
2017-07-09T22:51:35.953Z,64.10
2017-07-09T22:54:02.721Z,64.30
2017-07-09T22:56:28.821Z,64.30
2017-07-09T22:58:54.897Z,63.70
2017-07-09T23:01:21.713Z,64.20
2017-07-09T23:03:48.525Z,64.80
2017-07-09T23:06:14.570Z,64.10
2017-07-09T23:08:41.325Z,64.80
2017-07-09T23:11:07.366Z,64.70
2017-07-09T23:13:33.401Z,65.00
2017-07-09T23:16:00.177Z,65.30
2017-07-09T23:18:26.259Z,64.70
2017-07-09T23:20:52.290Z,65.00
2017-07-09T23:23:18.325Z,65.20
2017-07-09T23:25:51.393Z,65.60
2017-07-09T23:28:17.437Z,65.90
2017-07-09T23:30:43.455Z,66.40
2017-07-09T23:33:10.230Z,66.60
2017-07-09T23:35:36.270Z,66.60
2017-07-09T23:38:03.054Z,66.40
2017-07-09T23:40:29.099Z,66.40
2017-07-09T23:42:55.145Z,67.10
2017-07-09T23:45:21.167Z,67.40
2017-07-09T23:47:47.189Z,66.80
2017-07-09T23:50:13.242Z,66.90
2017-07-09T23:52:40.102Z,68.00
2017-07-09T23:55:06.159Z,67.30
2017-07-09T23:57:32.226Z,67.00
2017-07-09T23:59:58.277Z,67.80
